Terminal Aerodrome Forecast
Issued by NWS Bismarck, ND

Home | Current Version | Previous Version | Text Only | Print | Product List | Glossary On
Versions: 1 2 3 4 5 6 7 8 9 10 11 12 13 14 15 16 17 18 19 20
000
FTUS43 KBIS 270500
TAFBIS
TAF
KBIS 270520Z 2706/2806 11005KT P6SM BKN120
     FM271000 13009KT P6SM BKN050
     FM271200 15010KT 1SM -SN OVC020
     FM271700 18011KT P6SM OVC030
     FM272300 32008KT P6SM BKN040=

USA.gov is the U.S. government's official web portal to all federal, state and local government web resources and services.